Hauptseite
METAR-TAF:

METAR-TAF

Flughäfen :

Gibraltar, Gibraltar

Flughafen Gibraltar

Breite: 36-09N, Länge: 005-21W, Höhe: 5 m

Beobachtung

Neuester Wetterbericht von vor 47 Minuten, um 07:50 UTC
Wind 6 kt aus Ost
Temperatur 20°C
Luftfeuchtigkeit 94%
Luftdruck 1021 hPa
Sichtweite 10 km oder mehr
Aufgelockert bewölkt in der Höhe von 1200 ft
Durchbrochene Bewölkung in der Höhe von 2000 ft

METAR: LXGB 240750Z 09006KT 9999 SCT012 BKN020 20/19 Q1021 BECMG FEW012 SCT020

Zeit: 10:37 (08:37 UTC)

Prognose

Neuester Wetterbericht von vor 1 Stunde und 10 Minuten, um 07:27 UTC
Gültige Prognose vom 24 um 09 UTC bis 24 um 18 UTC
Wind 10 kt aus Ost
Sichtweite 10 km oder mehr
Leicht bewölkt in der Höhe von 1200 ft
Durchbrochene Bewölkung in der Höhe von 2500 ft
Zeitweise
vom 24 um 09 UTC bis 24 um 15 UTC
Aufgelockert bewölkt in der Höhe von 2000 ft

TAF: LXGB 240727Z 2409/2418 09010KT 9999 FEW012 BKN025 TEMPO 2409/2415 SCT020

Wetterbeobachtungen und Prognosen von mehr als 4000 Flughäfen (METAR und TAF Bericht).

Die verfügbaren Stationen werden durch gelbe und rote Markierungen auf der Karte dargestellt.

Führen Sie die Maus auf sie, um den Namen der Station zu sehen.

Darauf klicken, um die Beobachtung von Wetterbeobachtungen und Prognosen zu sehen.

Um die Karte zu ändern : klicken Sie auf den grünen Tasten mit einem schwarzen Kreuz Zum Vergrößern, auf den grünen Button mit einem Gedankenstrich zu verkleinern, oder auf die grünen Pfeile für benachbarte Karten.


METAR-TAF: